Time;durP1;ratioP1;P1;durP2;ratioP2;P2;SDS_P1;SDS_P2;PMS_P1;PMS_P2;Temp;Humidity;BMP_temperature;BMP_pressure;BME280_temperature;BME280_humidity;BME280_pressure;Samples;Min_cycle;Max_cycle;Signal;HPM_P1;HPM_P2
2023/07/14 00:00:08;;;;;;;26.60;24.80;;;21.20;99.90;;;;;;5024954;28;19914;-74
2023/07/14 00:02:35;;;;;;;24.25;22.85;;;21.20;99.90;;;;;;5011643;28;20113;-74
2023/07/14 00:05:03;;;;;;;31.10;29.00;;;21.20;99.90;;;;;;4995704;28;20049;-75
2023/07/14 00:07:29;;;;;;;28.10;26.13;;;21.10;99.90;;;;;;5013139;28;20026;-75
2023/07/14 00:09:55;;;;;;;32.65;30.50;;;21.00;99.90;;;;;;5013390;28;20045;-75
2023/07/14 00:12:21;;;;;;;35.75;33.72;;;21.00;99.90;;;;;;4995338;28;20045;-75
2023/07/14 00:14:48;;;;;;;34.50;32.40;;;21.00;99.90;;;;;;5012871;28;20030;-74
2023/07/14 00:17:14;;;;;;;33.33;31.27;;;21.00;99.90;;;;;;5011249;28;20035;-74
2023/07/14 00:19:40;;;;;;;30.50;28.52;;;21.00;99.90;;;;;;5013055;28;20050;-75
2023/07/14 00:22:14;;;;;;;42.13;39.67;;;21.00;99.90;;;;;;5011547;28;20026;-75
2023/07/14 00:24:44;;;;;;;54.38;51.42;;;21.00;99.90;;;;;;5011818;28;20486;-75
2023/07/14 00:27:18;;;;;;;46.50;44.03;;;21.10;99.90;;;;;;5011570;28;20033;-75
2023/07/14 00:29:45;;;;;;;43.33;40.92;;;20.90;99.90;;;;;;5011534;28;20045;-75
2023/07/14 00:32:19;;;;;;;41.28;38.88;;;21.00;99.90;;;;;;5010873;28;20376;-75
2023/07/14 00:34:45;;;;;;;49.45;46.67;;;20.90;99.90;;;;;;5011527;28;20041;-75
2023/07/14 00:37:11;;;;;;;40.50;38.20;;;21.00;99.90;;;;;;5011347;28;20387;-75
2023/07/14 00:39:38;;;;;;;46.90;43.92;;;20.90;99.90;;;;;;5011523;28;20034;-75
2023/07/14 00:42:07;;;;;;;34.15;31.95;;;20.90;99.90;;;;;;5012511;28;20053;-75
2023/07/14 00:44:34;;;;;;;32.83;30.92;;;20.90;99.90;;;;;;5010939;28;20399;-74
2023/07/14 00:47:01;;;;;;;26.17;24.33;;;20.90;99.90;;;;;;5012060;28;20044;-75
2023/07/14 00:49:36;;;;;;;34.90;32.75;;;20.90;99.90;;;;;;5012480;28;20041;-75
2023/07/14 00:52:14;;;;;;;38.33;36.13;;;20.90;99.90;;;;;;5012386;28;20030;-75
2023/07/14 00:54:42;;;;;;;23.38;21.90;;;20.90;99.90;;;;;;4980052;28;20030;-74
2023/07/14 00:57:17;;;;;;;33.60;31.60;;;21.00;99.90;;;;;;4994849;28;20030;-75
2023/07/14 00:59:43;;;;;;;32.33;30.33;;;21.00;99.90;;;;;;5011413;28;20052;-75
2023/07/14 01:02:17;;;;;;;26.05;24.42;;;21.00;99.90;;;;;;5010608;28;20026;-75
2023/07/14 01:04:46;;;;;;;23.92;22.23;;;21.00;99.90;;;;;;5011235;28;20032;-75
2023/07/14 01:07:12;;;;;;;21.67;20.38;;;21.00;99.90;;;;;;4994886;28;20034;-75
2023/07/14 01:09:39;;;;;;;29.63;27.98;;;21.00;99.90;;;;;;5011218;28;20026;-75
2023/07/14 01:12:05;;;;;;;27.52;25.88;;;21.00;99.90;;;;;;5010664;28;20037;-75
2023/07/14 01:14:40;;;;;;;18.75;17.55;;;21.00;99.90;;;;;;5011274;28;20037;-75
2023/07/14 01:17:06;;;;;;;27.42;25.23;;;21.00;99.90;;;;;;5010668;28;20038;-74
2023/07/14 01:19:51;;;;;;;30.40;28.35;;;21.00;99.90;;;;;;5011162;28;20041;-75
2023/07/14 01:22:23;;;;;;;18.33;16.60;;;20.90;99.90;;;;;;5012018;28;20037;-75
2023/07/14 01:24:56;;;;;;;17.75;16.52;;;20.80;99.90;;;;;;5011126;28;20360;-75
2023/07/14 01:27:24;;;;;;;18.00;16.30;;;20.50;99.90;;;;;;5010426;28;20026;-74
2023/07/14 01:29:52;;;;;;;20.80;19.00;;;20.50;99.90;;;;;;5011234;28;20360;-75
2023/07/14 01:32:19;;;;;;;17.65;16.45;;;20.60;99.90;;;;;;5010361;28;20042;-75
2023/07/14 01:34:45;;;;;;;17.10;15.73;;;20.70;99.90;;;;;;5011042;28;20034;-75
2023/07/14 01:37:16;;;;;;;16.90;15.52;;;20.70;99.90;;;;;;5010754;28;20037;-75
2023/07/14 01:39:43;;;;;;;22.52;20.73;;;20.70;99.90;;;;;;5010943;28;20034;-75
2023/07/14 01:42:09;;;;;;;24.70;22.70;;;20.70;99.90;;;;;;5010472;28;20026;-75
2023/07/14 01:44:35;;;;;;;24.63;22.95;;;20.80;99.90;;;;;;5010897;28;20030;-76
2023/07/14 01:47:01;;;;;;;28.35;26.60;;;20.80;99.90;;;;;;5010236;28;20037;-76
2023/07/14 01:49:27;;;;;;;19.98;18.63;;;20.90;99.90;;;;;;5010701;28;20046;-75
2023/07/14 01:51:56;;;;;;;27.17;25.48;;;20.80;99.90;;;;;;5011780;28;20364;-75
2023/07/14 01:54:33;;;;;;;32.78;30.55;;;20.80;99.90;;;;;;4994692;28;20464;-75
2023/07/14 01:57:01;;;;;;;22.30;20.65;;;20.80;99.90;;;;;;4994892;28;20041;-75
2023/07/14 01:59:30;;;;;;;24.75;22.90;;;20.70;99.90;;;;;;5010058;28;20037;-75
2023/07/14 02:01:59;;;;;;;25.02;23.42;;;20.80;99.90;;;;;;5000968;28;20034;-76
2023/07/14 02:04:27;;;;;;;21.98;20.70;;;20.70;99.90;;;;;;5004120;28;20021;-75
2023/07/14 02:06:56;;;;;;;21.55;20.20;;;20.80;99.90;;;;;;5008417;28;20073;-76
2023/07/14 02:09:23;;;;;;;21.17;19.88;;;20.80;99.90;;;;;;5010325;28;20022;-75
2023/07/14 02:11:54;;;;;;;22.08;20.58;;;20.80;99.90;;;;;;5012028;28;20030;-75
2023/07/14 02:14:20;;;;;;;25.45;23.60;;;20.70;99.90;;;;;;5012449;28;20018;-75
2023/07/14 02:16:47;;;;;;;30.00;28.17;;;20.80;99.90;;;;;;5011636;28;20384;-75
2023/07/14 02:19:23;;;;;;;27.38;25.58;;;20.80;99.90;;;;;;5012446;28;20045;-74
2023/07/14 02:21:49;;;;;;;31.63;29.88;;;20.70;99.90;;;;;;5012341;28;20483;-75
2023/07/14 02:24:20;;;;;;;40.92;38.63;;;20.70;99.90;;;;;;5012032;28;20063;-74
2023/07/14 02:26:49;;;;;;;42.90;40.45;;;20.60;99.90;;;;;;5012071;28;20384;-75
2023/07/14 02:29:15;;;;;;;36.03;33.90;;;20.60;99.90;;;;;;5012269;28;20026;-75
2023/07/14 02:31:44;;;;;;;41.15;38.85;;;20.60;99.90;;;;;;5012781;28;20030;-75
2023/07/14 02:34:11;;;;;;;33.30;31.42;;;20.60;99.90;;;;;;5012131;28;20025;-75
2023/07/14 02:36:56;;;;;;;32.60;30.63;;;20.60;99.90;;;;;;5012208;28;20022;-74
2023/07/14 02:39:22;;;;;;;40.58;37.95;;;20.60;99.90;;;;;;5014457;28;20038;-75
2023/07/14 02:41:49;;;;;;;39.90;37.65;;;20.50;99.90;;;;;;5013607;28;20034;-75
2023/07/14 02:44:16;;;;;;;36.83;34.67;;;20.50;99.90;;;;;;5013654;28;20040;-75
2023/07/14 02:46:52;;;;;;;34.88;32.63;;;20.50;99.90;;;;;;5012942;28;20041;-75
2023/07/14 02:49:18;;;;;;;31.88;29.98;;;20.40;99.90;;;;;;5014572;28;20525;-75
2023/07/14 02:51:44;;;;;;;30.90;28.60;;;20.00;99.90;;;;;;5013216;28;20030;-75
2023/07/14 02:54:10;;;;;;;24.65;23.00;;;19.70;99.90;;;;;;5013198;28;20036;-75
2023/07/14 02:56:37;;;;;;;25.73;24.27;;;19.50;99.90;;;;;;5011397;28;20112;-74
2023/07/14 02:59:03;;;;;;;23.08;21.48;;;19.30;99.90;;;;;;5011616;28;20025;-75
2023/07/14 03:01:32;;;;;;;25.83;24.02;;;19.30;99.90;;;;;;5011891;28;20049;-75
2023/07/14 03:03:59;;;;;;;19.98;18.52;;;19.30;99.90;;;;;;5008423;28;20021;-75
2023/07/14 03:06:25;;;;;;;15.20;14.18;;;19.20;99.90;;;;;;5012928;28;20037;-75
2023/07/14 03:08:51;;;;;;;21.00;19.67;;;19.00;99.90;;;;;;5012785;28;20041;-75
2023/07/14 03:11:18;;;;;;;13.90;12.95;;;19.00;99.90;;;;;;5014144;28;20034;-75
2023/07/14 03:13:46;;;;;;;16.00;14.95;;;19.10;99.90;;;;;;5013169;28;20031;-75
2023/07/14 03:16:12;;;;;;;12.18;11.18;;;19.10;99.90;;;;;;5012468;28;20038;-75
2023/07/14 03:18:39;;;;;;;10.57;9.38;;;19.20;99.90;;;;;;5014149;28;20471;-75
2023/07/14 03:21:05;;;;;;;10.88;9.85;;;19.30;99.90;;;;;;5013718;28;20046;-75
2023/07/14 03:23:31;;;;;;;12.57;9.20;;;19.20;99.90;;;;;;5013838;28;20049;-75
2023/07/14 03:26:02;;;;;;;13.18;12.07;;;19.20;99.90;;;;;;5012519;28;20030;-75
2023/07/14 03:28:29;;;;;;;9.68;8.70;;;19.20;99.90;;;;;;5012726;28;20041;-75
2023/07/14 03:30:55;;;;;;;9.57;7.72;;;19.10;99.90;;;;;;5012112;28;20510;-75
2023/07/14 03:33:21;;;;;;;11.70;8.85;;;19.00;99.90;;;;;;5013912;28;20037;-75
2023/07/14 03:35:47;;;;;;;9.70;8.05;;;19.00;99.90;;;;;;5013560;28;20403;-75
2023/07/14 03:38:15;;;;;;;10.63;9.02;;;19.00;99.90;;;;;;5012385;28;20034;-75
2023/07/14 03:40:41;;;;;;;13.52;11.18;;;19.00;99.90;;;;;;5012208;28;20041;-75
2023/07/14 03:43:07;;;;;;;8.23;7.43;;;19.10;99.90;;;;;;5013893;28;20030;-75
2023/07/14 03:45:33;;;;;;;12.73;11.38;;;19.10;99.90;;;;;;5012919;28;20030;-75
2023/07/14 03:47:59;;;;;;;10.05;9.20;;;19.00;99.90;;;;;;5012341;28;20391;-75
2023/07/14 03:50:25;;;;;;;8.65;6.82;;;18.90;99.90;;;;;;5012100;28;20050;-75
2023/07/14 03:52:52;;;;;;;10.18;9.32;;;18.80;99.90;;;;;;5012016;28;20431;-75
2023/07/14 03:55:18;;;;;;;13.85;12.77;;;18.70;99.90;;;;;;5013123;28;20034;-74
2023/07/14 03:57:44;;;;;;;13.13;11.45;;;18.60;99.90;;;;;;5013413;28;20399;-75
2023/07/14 04:00:16;;;;;;;10.40;9.55;;;18.60;99.90;;;;;;5011694;28;20049;-75
2023/07/14 04:02:42;;;;;;;12.88;11.77;;;18.60;99.90;;;;;;5012241;28;20044;-75
2023/07/14 04:05:08;;;;;;;12.90;11.32;;;18.70;99.90;;;;;;5012301;28;20030;-75
2023/07/14 04:07:35;;;;;;;11.68;10.35;;;18.70;99.90;;;;;;5011379;28;20383;-75
2023/07/14 04:10:02;;;;;;;12.35;10.93;;;18.70;99.90;;;;;;5012246;28;20046;-75
2023/07/14 04:12:28;;;;;;;12.75;11.38;;;18.70;99.90;;;;;;5011773;28;20018;-75
2023/07/14 04:14:54;;;;;;;12.60;11.18;;;18.70;99.90;;;;;;4995999;28;20054;-75
2023/07/14 04:17:21;;;;;;;12.13;11.15;;;18.80;99.90;;;;;;5012490;28;20403;-75
2023/07/14 04:19:48;;;;;;;12.48;11.18;;;18.70;99.90;;;;;;5011937;28;20038;-75
2023/07/14 04:22:14;;;;;;;12.40;11.10;;;18.60;99.90;;;;;;5011280;28;20379;-75
2023/07/14 04:24:40;;;;;;;11.82;10.60;;;18.50;99.90;;;;;;5011806;28;20053;-75
2023/07/14 04:27:06;;;;;;;14.50;10.93;;;18.40;99.90;;;;;;5009728;28;20022;-75
2023/07/14 04:29:33;;;;;;;14.85;10.90;;;18.50;99.90;;;;;;5011550;28;20077;-75
2023/07/14 04:31:59;;;;;;;11.20;10.20;;;18.60;99.90;;;;;;5024745;28;20510;-75
2023/07/14 04:34:28;;;;;;;11.38;10.38;;;18.80;99.90;;;;;;5031943;28;20060;-75
2023/07/14 04:36:55;;;;;;;11.70;10.55;;;18.70;99.90;;;;;;5014349;28;20052;-75
2023/07/14 04:39:23;;;;;;;12.45;9.75;;;18.70;99.90;;;;;;5032405;28;20044;-75
2023/07/14 04:41:54;;;;;;;12.48;9.80;;;18.60;99.90;;;;;;5031134;28;20037;-75
2023/07/14 04:44:20;;;;;;;10.32;9.43;;;18.50;99.90;;;;;;5031411;28;20352;-75
2023/07/14 04:46:46;;;;;;;9.90;9.00;;;18.60;99.90;;;;;;5030365;28;20045;-75
2023/07/14 04:49:13;;;;;;;10.52;9.40;;;18.40;99.90;;;;;;5031832;28;20041;-70
2023/07/14 04:51:40;;;;;;;10.68;9.30;;;18.30;99.90;;;;;;5031136;28;20045;-75
2023/07/14 04:54:06;;;;;;;12.45;9.57;;;18.20;99.90;;;;;;5030732;28;20045;-75
2023/07/14 04:56:36;;;;;;;9.68;8.63;;;18.20;99.90;;;;;;5030802;28;20029;-75
2023/07/14 04:59:03;;;;;;;13.60;8.77;;;18.20;99.90;;;;;;5031140;28;20025;-75
2023/07/14 05:01:30;;;;;;;11.68;8.68;;;18.20;99.90;;;;;;5030148;28;20029;-75
2023/07/14 05:03:56;;;;;;;8.82;8.02;;;18.20;99.90;;;;;;5031866;28;20437;-75
2023/07/14 05:06:22;;;;;;;8.93;8.07;;;18.10;99.90;;;;;;5030689;28;20021;-75
2023/07/14 05:08:49;;;;;;;8.63;7.80;;;18.10;99.90;;;;;;5032346;28;20056;-75
2023/07/14 05:11:15;;;;;;;8.75;7.82;;;18.10;99.90;;;;;;5030603;28;20030;-75
2023/07/14 05:13:41;;;;;;;11.70;8.00;;;17.90;99.90;;;;;;5030986;28;20037;-75
2023/07/14 05:16:07;;;;;;;9.45;7.40;;;17.90;99.90;;;;;;5030494;28;20041;-75
2023/07/14 05:18:33;;;;;;;8.88;7.80;;;18.10;99.90;;;;;;5031848;28;20037;-74
2023/07/14 05:21:01;;;;;;;9.25;8.13;;;18.10;99.90;;;;;;5031799;28;20033;-75
2023/07/14 05:23:27;;;;;;;10.15;7.95;;;18.20;99.90;;;;;;5032027;28;20029;-75
2023/07/14 05:25:54;;;;;;;8.70;7.80;;;18.20;99.90;;;;;;5031708;28;20033;-73
2023/07/14 05:28:20;;;;;;;11.98;7.63;;;18.30;99.90;;;;;;5030213;28;20505;-75
2023/07/14 05:30:47;;;;;;;8.93;7.60;;;18.20;99.90;;;;;;5031536;28;20029;-75
2023/07/14 05:33:16;;;;;;;9.02;8.10;;;18.20;99.90;;;;;;5030684;28;20033;-75
2023/07/14 05:35:43;;;;;;;8.77;7.75;;;18.10;99.90;;;;;;5030347;28;20081;-75
2023/07/14 05:38:09;;;;;;;8.20;7.40;;;18.10;99.90;;;;;;5030873;28;20024;-75
2023/07/14 05:40:35;;;;;;;11.15;10.23;;;18.20;99.90;;;;;;5031465;28;20038;-74
2023/07/14 05:43:01;;;;;;;11.82;10.95;;;18.40;99.90;;;;;;5030789;28;20391;-75
2023/07/14 05:45:27;;;;;;;11.88;10.43;;;18.50;99.90;;;;;;5034431;28;20021;-75
2023/07/14 05:47:53;;;;;;;11.90;10.77;;;18.70;99.90;;;;;;5035449;28;20482;-74
2023/07/14 05:50:19;;;;;;;10.35;9.50;;;18.80;99.90;;;;;;5034081;28;20042;-75
2023/07/14 05:52:46;;;;;;;10.77;9.82;;;18.80;99.90;;;;;;5034276;28;20049;-75
2023/07/14 05:55:12;;;;;;;10.07;9.23;;;18.90;99.90;;;;;;5035375;28;20458;-75
2023/07/14 05:57:38;;;;;;;11.52;10.32;;;19.00;99.90;;;;;;5034137;28;20034;-75
2023/07/14 06:00:13;;;;;;;10.48;9.55;;;19.10;99.90;;;;;;5035047;28;20045;-74
2023/07/14 06:02:40;;;;;;;10.82;9.85;;;19.20;99.90;;;;;;5014104;28;20038;-74
2023/07/14 06:05:08;;;;;;;10.75;9.88;;;19.40;99.90;;;;;;5014736;28;20412;-75
2023/07/14 06:07:34;;;;;;;9.25;8.55;;;19.60;99.90;;;;;;5017702;28;20494;-75
2023/07/14 06:10:00;;;;;;;9.23;8.43;;;19.60;99.90;;;;;;5034036;28;20478;-75
2023/07/14 06:12:26;;;;;;;11.90;11.02;;;19.60;99.90;;;;;;5035026;28;20025;-75
2023/07/14 06:14:53;;;;;;;12.15;11.23;;;19.60;99.90;;;;;;5035106;28;20045;-75
2023/07/14 06:17:19;;;;;;;13.07;12.07;;;19.60;99.90;;;;;;5034313;28;20104;-76
2023/07/14 06:19:45;;;;;;;12.52;11.43;;;19.60;99.90;;;;;;5035075;28;20056;-75
2023/07/14 06:22:11;;;;;;;12.80;11.68;;;19.70;99.90;;;;;;5033616;28;20030;-75
2023/07/14 06:24:37;;;;;;;13.75;12.70;;;19.80;99.90;;;;;;5033659;28;20037;-75
2023/07/14 06:27:05;;;;;;;14.70;13.40;;;20.00;99.90;;;;;;5034674;28;20032;-75
2023/07/14 06:29:32;;;;;;;15.85;14.43;;;20.20;99.90;;;;;;5033383;28;20048;-75
2023/07/14 06:31:59;;;;;;;13.00;11.68;;;20.30;99.90;;;;;;5032655;28;20044;-74
2023/07/14 06:34:25;;;;;;;14.32;13.32;;;20.40;99.90;;;;;;5034779;28;20045;-75
2023/07/14 06:36:51;;;;;;;15.30;14.10;;;20.60;99.90;;;;;;5034555;28;20037;-74
2023/07/14 06:39:18;;;;;;;21.08;19.67;;;20.70;99.90;;;;;;5034601;28;20033;-75
2023/07/14 06:41:46;;;;;;;26.08;24.13;;;20.90;99.90;;;;;;5034564;28;20402;-74
2023/07/14 06:44:12;;;;;;;50.50;47.78;;;21.10;99.90;;;;;;5032859;28;20078;-75
2023/07/14 06:46:38;;;;;;;55.60;52.45;;;21.20;99.90;;;;;;5032319;28;20033;-75
2023/07/14 06:49:04;;;;;;;66.85;63.13;;;21.20;99.90;;;;;;5034409;28;20049;-75
2023/07/14 06:51:31;;;;;;;49.35;46.65;;;21.30;99.90;;;;;;5034225;28;20048;-75
2023/07/14 06:53:57;;;;;;;63.05;59.60;;;21.30;99.90;;;;;;5033453;28;20030;-75
2023/07/14 06:56:23;;;;;;;40.80;38.47;;;21.40;99.90;;;;;;5032267;28;20044;-75
2023/07/14 06:58:49;;;;;;;28.30;26.67;;;21.70;99.90;;;;;;5033254;28;20497;-75
2023/07/14 07:01:18;;;;;;;40.08;37.97;;;21.90;99.90;;;;;;5033318;28;20060;-75
2023/07/14 07:03:44;;;;;;;33.20;31.17;;;22.20;99.90;;;;;;5034343;28;20021;-75
2023/07/14 07:06:10;;;;;;;29.17;27.58;;;22.20;99.90;;;;;;5032858;28;20040;-75
2023/07/14 07:08:36;;;;;;;31.40;29.52;;;22.30;99.90;;;;;;5034140;28;20694;-74
2023/07/14 07:11:02;;;;;;;35.92;33.72;;;22.50;99.90;;;;;;5032676;28;20041;-75
2023/07/14 07:13:29;;;;;;;45.95;43.33;;;22.80;99.90;;;;;;5034135;28;20026;-75
2023/07/14 07:15:55;;;;;;;42.35;40.03;;;22.80;99.90;;;;;;5031613;28;20407;-74
2023/07/14 07:18:25;;;;;;;50.10;47.28;;;22.70;99.90;;;;;;5034074;28;20033;-74
2023/07/14 07:20:52;;;;;;;33.47;31.42;;;22.80;99.90;;;;;;5032464;28;20042;-75
2023/07/14 07:23:18;;;;;;;33.45;31.58;;;23.20;99.90;;;;;;5034024;28;20022;-75
2023/07/14 07:25:52;;;;;;;37.38;35.17;;;23.20;99.90;;;;;;5033584;28;20029;-75
2023/07/14 07:28:18;;;;;;;43.80;41.28;;;23.40;99.90;;;;;;5032571;28;20032;-75
2023/07/14 07:30:45;;;;;;;38.30;36.00;;;23.40;99.90;;;;;;5031404;28;20409;-75
2023/07/14 07:33:12;;;;;;;37.65;35.65;;;23.40;99.90;;;;;;5016112;28;20486;-75
2023/07/14 07:35:39;;;;;;;33.75;31.45;;;23.30;99.90;;;;;;5031959;28;20025;-75
2023/07/14 07:38:05;;;;;;;35.90;33.90;;;23.30;99.90;;;;;;5032196;28;20049;-75
2023/07/14 07:40:31;;;;;;;33.83;31.83;;;23.50;99.90;;;;;;5031956;28;20581;-75
2023/07/14 07:42:58;;;;;;;137.60;130.35;;;23.70;99.90;;;;;;5033659;28;20057;-75
2023/07/14 07:45:24;;;;;;;151.85;144.02;;;23.90;99.90;;;;;;5032520;28;20032;-75
2023/07/14 07:47:50;;;;;;;66.63;63.28;;;24.00;99.90;;;;;;5032299;28;20363;-75
2023/07/14 07:50:16;;;;;;;72.95;68.95;;;23.90;99.90;;;;;;5031233;28;20050;-76
2023/07/14 07:52:42;;;;;;;96.43;91.60;;;23.80;99.90;;;;;;5033935;28;20041;-76
2023/07/14 07:55:08;;;;;;;71.30;67.53;;;24.00;99.90;;;;;;5033246;28;20034;-76
2023/07/14 07:57:34;;;;;;;126.28;119.75;;;24.40;99.90;;;;;;5031739;28;20040;-76
2023/07/14 08:00:00;;;;;;;77.13;73.13;;;24.60;99.80;;;;;;5031619;28;20044;-76
2023/07/14 08:02:26;;;;;;;69.15;65.50;;;24.80;99.30;;;;;;5031458;28;20044;-77
2023/07/14 08:04:53;;;;;;;77.05;72.88;;;25.00;99.60;;;;;;5033145;28;20034;-76
2023/07/14 08:07:19;;;;;;;63.58;60.17;;;25.30;99.10;;;;;;5030751;28;20032;-76
2023/07/14 08:09:45;;;;;;;106.15;100.97;;;25.50;98.90;;;;;;5033080;28;20033;-76
2023/07/14 08:12:11;;;;;;;62.53;59.17;;;25.70;98.50;;;;;;5032684;28;20471;-76
2023/07/14 08:14:51;;;;;;;55.28;52.15;;;25.70;98.50;;;;;;5031516;28;20029;-75
2023/07/14 08:17:17;;;;;;;89.90;85.45;;;25.90;98.40;;;;;;5030980;28;20040;-75
2023/07/14 08:19:45;;;;;;;108.53;103.28;;;26.10;97.70;;;;;;5031690;28;20030;-76
2023/07/14 08:22:11;;;;;;;101.70;96.53;;;26.20;96.60;;;;;;5031048;28;20049;-76
2023/07/14 08:24:37;;;;;;;117.85;111.88;;;26.00;96.10;;;;;;5033278;28;20415;-75
2023/07/14 08:27:03;;;;;;;92.25;87.65;;;26.10;96.70;;;;;;5032359;28;20032;-76
2023/07/14 08:29:29;;;;;;;103.65;98.40;;;26.30;96.30;;;;;;5032623;28;20080;-76
2023/07/14 08:31:55;;;;;;;53.97;51.13;;;26.40;96.70;;;;;;5030892;28;20029;-76
2023/07/14 08:34:26;;;;;;;36.30;34.40;;;26.60;96.40;;;;;;5032629;28;20036;-75
2023/07/14 08:36:53;;;;;;;35.45;33.35;;;26.80;96.10;;;;;;5032292;28;20036;-76
2023/07/14 08:39:19;;;;;;;36.28;34.38;;;27.00;95.80;;;;;;5032540;28;20037;-76
2023/07/14 08:41:48;;;;;;;39.47;37.47;;;27.10;95.20;;;;;;5031928;28;20044;-76
2023/07/14 08:44:51;;;;;;;40.70;38.53;;;27.30;95.30;;;;;;5015282;28;20038;-75
2023/07/14 08:47:25;;;;;;;54.22;51.20;;;27.40;94.70;;;;;;5030487;28;20033;-75
2023/07/14 08:50:00;;;;;;;48.97;46.28;;;27.40;93.80;;;;;;5031139;28;20037;-76
2023/07/14 08:52:32;;;;;;;54.05;51.15;;;27.40;94.60;;;;;;5032041;28;20029;-76
2023/07/14 08:55:14;;;;;;;53.97;51.08;;;27.60;93.60;;;;;;5031279;28;20355;-75
2023/07/14 08:58:04;;;;;;;65.43;62.20;;;27.60;93.40;;;;;;5030838;28;20025;-75
2023/07/14 09:00:34;;;;;;;58.35;55.22;;;27.60;92.10;;;;;;5031608;28;20045;-75
2023/07/14 09:03:12;;;;;;;61.38;58.03;;;27.60;92.40;;;;;;5032372;28;20026;-76
2023/07/14 09:06:01;;;;;;;62.75;59.28;;;27.60;93.20;;;;;;5030806;28;20030;-76
2023/07/14 09:08:28;;;;;;;64.82;61.53;;;27.80;92.40;;;;;;5030999;28;20025;-76
2023/07/14 09:11:09;;;;;;;64.60;61.28;;;27.90;92.60;;;;;;5030372;28;20029;-76
2023/07/14 09:13:45;;;;;;;60.78;57.78;;;27.90;91.90;;;;;;5031002;28;20029;-76
2023/07/14 09:16:11;;;;;;;59.88;56.63;;;27.90;92.10;;;;;;5031357;28;20034;-76
2023/07/14 09:18:56;;;;;;;62.92;59.72;;;27.90;91.80;;;;;;5031250;28;20025;-76
2023/07/14 09:21:37;;;;;;;57.53;54.58;;;28.00;92.00;;;;;;5035839;28;20049;-76
2023/07/14 09:24:23;;;;;;;;;;;27.80;91.60;;;;;;5035388;28;20033;-76
2023/07/14 09:26:52;;;;;;;55.83;52.83;;;27.90;92.00;;;;;;5035102;28;19909;-76
2023/07/14 09:29:29;;;;;;;67.78;64.18;;;28.10;92.30;;;;;;5035976;28;20026;-76
2023/07/14 09:31:59;;;;;;;65.00;61.38;;;28.30;91.50;;;;;;5035184;28;20037;-77
2023/07/14 09:34:38;;;;;;;66.13;62.63;;;28.20;91.10;;;;;;5034853;28;20462;-76
2023/07/14 09:37:16;;;;;;;68.75;65.25;;;28.30;91.00;;;;;;5034286;28;20042;-76
2023/07/14 09:39:43;;;;;;;69.68;66.03;;;28.40;90.80;;;;;;5034290;28;20026;-76
2023/07/14 09:42:14;;;;;;;71.43;67.82;;;28.50;90.50;;;;;;5017119;28;20053;-76
2023/07/14 09:44:41;;;;;;;82.38;78.20;;;28.60;91.20;;;;;;5034539;28;20490;-76
2023/07/14 09:47:07;;;;;;;78.90;75.10;;;28.80;90.50;;;;;;5035088;28;20045;-77
2023/07/14 09:49:45;;;;;;;83.95;79.85;;;28.80;90.30;;;;;;5034254;28;20402;-77
2023/07/14 09:52:23;;;;;;;82.35;78.18;;;28.80;90.10;;;;;;5034262;28;20387;-76
2023/07/14 09:54:49;;;;;;;87.38;83.07;;;28.80;90.10;;;;;;5035199;28;20473;-76
2023/07/14 09:57:17;;;;;;;81.00;77.15;;;28.90;90.00;;;;;;5035256;28;20033;-75
2023/07/14 09:59:57;;;;;;;92.93;88.43;;;29.10;90.30;;;;;;5034462;28;20029;-76
2023/07/14 10:02:31;;;;;;;86.72;82.43;;;29.20;90.10;;;;;;5033502;28;20041;-76
2023/07/14 10:05:36;;;;;;;99.35;94.47;;;29.40;90.00;;;;;;5035466;28;20025;-76
2023/07/14 10:08:03;;;;;;;96.32;91.35;;;29.30;88.90;;;;;;5029279;28;20033;-76
2023/07/14 10:10:30;;;;;;;87.55;83.25;;;29.30;89.30;;;;;;5034812;28;20033;-76
2023/07/14 10:12:56;;;;;;;87.40;83.18;;;29.30;90.00;;;;;;5034079;28;20233;-76
2023/07/14 10:15:30;;;;;;;114.13;108.63;;;29.40;89.70;;;;;;5034539;28;20037;-76
2023/07/14 10:18:02;;;;;;;96.85;92.25;;;29.40;87.40;;;;;;5035249;28;20037;-75
2023/07/14 10:20:29;;;;;;;102.30;97.45;;;29.40;88.30;;;;;;5033669;28;20042;-76
2023/07/14 10:22:56;;;;;;;99.25;94.20;;;29.50;87.90;;;;;;5034803;28;20048;-76
2023/07/14 10:25:23;;;;;;;90.63;86.22;;;29.50;88.10;;;;;;5033505;28;20029;-76
2023/07/14 10:28:11;;;;;;;97.85;93.10;;;29.60;88.90;;;;;;5033755;28;20036;-76
2023/07/14 10:30:53;;;;;;;102.93;97.97;;;29.80;88.20;;;;;;5031810;28;20037;-76
2023/07/14 10:33:27;;;;;;;110.82;105.32;;;29.80;87.60;;;;;;5033866;28;20513;-76
2023/07/14 10:36:02;;;;;;;110.63;105.32;;;29.90;87.10;;;;;;5033345;28;20040;-76
2023/07/14 10:38:32;;;;;;;115.65;109.97;;;30.00;87.20;;;;;;5033246;28;20028;-76
2023/07/14 10:41:03;;;;;;;92.00;87.60;;;30.10;87.00;;;;;;5033255;28;20468;-76
2023/07/14 10:43:48;;;;;;;111.45;105.95;;;30.20;87.70;;;;;;5033592;28;20032;-76
2023/07/14 10:46:30;;;;;;;137.57;130.80;;;30.40;86.60;;;;;;5032566;28;20052;-76
2023/07/14 10:49:24;;;;;;;129.18;123.00;;;30.50;84.60;;;;;;5033370;28;20490;-76
2023/07/14 10:51:54;;;;;;;133.45;127.18;;;30.20;83.60;;;;;;5017669;28;20041;-76
2023/07/14 10:54:41;;;;;;;129.37;123.03;;;30.20;83.60;;;;;;5033344;28;20030;-76
2023/07/14 10:57:45;;;;;;;120.13;114.43;;;30.30;83.80;;;;;;5033180;28;20025;-76
2023/07/14 11:00:51;;;;;;;133.35;126.85;;;30.30;84.50;;;;;;4991749;28;20034;-76
2023/07/14 11:03:38;;;;;;;132.32;125.93;;;30.40;82.50;;;;;;4976465;28;20177;-76
2023/07/14 11:06:10;;;;;;;113.07;107.60;;;30.40;82.40;;;;;;4991644;28;20463;-76
2023/07/14 11:08:36;;;;;;;130.98;124.65;;;30.50;84.90;;;;;;4975713;28;20046;-76
2023/07/14 11:11:15;;;;;;;127.57;121.53;;;30.50;82.90;;;;;;4976362;28;20038;-76
2023/07/14 11:13:52;;;;;;;129.23;123.05;;;30.50;82.50;;;;;;4977312;28;20042;-76
2023/07/14 11:16:23;;;;;;;112.65;106.93;;;30.40;82.40;;;;;;4975712;28;20475;-76
2023/07/14 11:18:56;;;;;;;122.60;116.60;;;30.50;83.60;;;;;;4976263;28;20030;-76
2023/07/14 11:21:43;;;;;;;129.30;123.03;;;30.60;83.80;;;;;;4975064;28;20158;-76
2023/07/14 11:24:17;;;;;;;134.52;127.97;;;30.80;83.10;;;;;;4976150;28;20026;-77
2023/07/14 11:27:10;;;;;;;122.30;116.32;;;30.80;82.10;;;;;;4975746;28;20058;-76
2023/07/14 11:29:41;;;;;;;126.00;119.78;;;30.80;82.10;;;;;;4992219;28;20046;-76
2023/07/14 11:32:15;;;;;;;128.82;122.78;;;30.80;82.20;;;;;;4991425;28;20035;-77
2023/07/14 11:34:47;;;;;;;128.43;122.03;;;30.90;81.50;;;;;;4976485;28;20030;-75
2023/07/14 11:37:41;;;;;;;121.50;115.47;;;30.90;81.40;;;;;;5031770;28;20029;-76
2023/07/14 11:40:13;;;;;;;120.32;114.43;;;31.00;82.70;;;;;;5032527;28;20048;-76
2023/07/14 11:42:39;;;;;;;111.57;106.22;;;31.10;82.90;;;;;;5012206;28;20038;-76
2023/07/14 11:45:18;;;;;;;117.10;111.43;;;31.10;83.00;;;;;;5012179;28;20025;-76
2023/07/14 11:47:44;;;;;;;116.07;110.30;;;31.20;82.30;;;;;;5014500;28;20033;-76
2023/07/14 11:50:16;;;;;;;128.93;122.82;;;31.40;82.30;;;;;;5031546;28;20052;-76
2023/07/14 11:53:02;;;;;;;113.57;108.10;;;31.40;80.20;;;;;;5033372;28;20436;-77
2023/07/14 11:55:30;;;;;;;119.25;113.57;;;31.30;81.80;;;;;;5031682;28;20030;-75
2023/07/14 11:58:05;;;;;;;128.98;122.78;;;31.40;81.90;;;;;;5015873;28;20038;-75
2023/07/14 12:00:41;;;;;;;123.75;117.75;;;31.40;79.50;;;;;;5032424;28;20033;-76
2023/07/14 12:03:33;;;;;;;118.32;112.75;;;31.30;80.20;;;;;;5031893;28;20049;-76
2023/07/14 12:06:18;;;;;;;119.82;113.88;;;31.30;80.90;;;;;;5032509;28;20034;-76
2023/07/14 12:09:05;;;;;;;126.88;120.90;;;31.30;80.80;;;;;;5033151;28;20414;-76
2023/07/14 12:11:40;;;;;;;128.75;122.63;;;31.30;79.30;;;;;;5031703;28;20045;-76
2023/07/14 12:14:31;;;;;;;121.85;116.00;;;31.20;78.90;;;;;;5032937;28;20044;-76
2023/07/14 12:16:57;;;;;;;;;;;31.20;79.40;;;;;;5032697;28;20034;-76
2023/07/14 12:19:26;;;;;;;118.75;112.95;;;31.20;80.70;;;;;;5031407;28;19916;-76
2023/07/14 12:22:05;;;;;;;118.75;112.78;;;31.30;80.90;;;;;;5031387;28;20061;-76
2023/07/14 12:24:34;;;;;;;120.38;114.50;;;31.40;80.90;;;;;;5031710;28;20038;-76
2023/07/14 12:27:07;;;;;;;120.65;114.95;;;31.50;81.50;;;;;;5032529;28;20017;-76
2023/07/14 12:29:33;;;;;;;114.38;108.78;;;31.60;80.20;;;;;;5015130;28;20402;-75
2023/07/14 12:31:59;;;;;;;113.65;108.15;;;31.60;79.50;;;;;;5030841;28;20030;-75
2023/07/14 12:34:30;;;;;;;105.60;100.35;;;31.60;81.00;;;;;;5032390;28;20052;-76
2023/07/14 12:36:56;;;;;;;113.80;108.38;;;31.60;80.40;;;;;;5031084;28;20037;-75
2023/07/14 12:39:23;;;;;;;119.07;113.20;;;31.60;80.50;;;;;;5032507;28;20029;-75